createdAt,value
2023-02-28T00:01:35.300Z,17.70
2023-02-28T00:04:03.078Z,15.43
2023-02-28T00:06:30.586Z,17.13
2023-02-28T00:08:57.782Z,16.40
2023-02-28T00:11:25.118Z,15.98
2023-02-28T00:13:52.235Z,14.52
2023-02-28T00:16:23.044Z,17.17
2023-02-28T00:18:51.311Z,14.68
2023-02-28T00:21:19.833Z,14.73
2023-02-28T00:23:47.312Z,14.37
2023-02-28T00:26:14.812Z,15.02
2023-02-28T00:28:46.239Z,15.25
2023-02-28T00:31:13.446Z,18.52
2023-02-28T00:33:40.649Z,15.25
2023-02-28T00:36:10.949Z,16.15
2023-02-28T00:38:40.015Z,18.63
2023-02-28T00:41:08.481Z,18.73
2023-02-28T00:43:38.062Z,18.23
2023-02-28T00:46:06.562Z,23.45
2023-02-28T00:48:33.924Z,18.42
2023-02-28T00:51:01.712Z,17.88
2023-02-28T00:53:29.794Z,20.48
2023-02-28T00:55:58.918Z,19.65
2023-02-28T00:58:27.648Z,21.00
2023-02-28T01:00:54.974Z,15.48
2023-02-28T01:03:23.055Z,15.20
2023-02-28T01:05:51.221Z,17.75
2023-02-28T01:08:18.454Z,17.00
2023-02-28T01:10:45.800Z,20.92
2023-02-28T01:13:13.559Z,19.00
2023-02-28T01:15:52.089Z,18.40
2023-02-28T01:18:20.303Z,18.00
2023-02-28T01:20:49.061Z,13.73
2023-02-28T01:25:44.268Z,17.20
2023-02-28T01:28:11.421Z,17.52
2023-02-28T01:30:38.684Z,18.15
2023-02-28T01:33:07.158Z,20.35
2023-02-28T01:35:36.281Z,19.58
2023-02-28T01:38:20.527Z,17.35
2023-02-28T01:40:49.201Z,18.75
2023-02-28T01:43:28.354Z,18.75
2023-02-28T01:45:58.293Z,18.15
2023-02-28T01:48:33.663Z,19.45
2023-02-28T01:51:10.087Z,18.35
2023-02-28T01:53:51.812Z,18.73
2023-02-28T01:56:28.130Z,19.83
2023-02-28T01:58:56.453Z,16.35
2023-02-28T02:01:28.396Z,18.10
2023-02-28T02:03:59.703Z,16.75
2023-02-28T02:06:37.625Z,18.08
2023-02-28T02:09:04.993Z,17.80
2023-02-28T02:11:33.725Z,17.23
2023-02-28T02:14:14.159Z,16.33
2023-02-28T02:17:08.124Z,16.73
2023-02-28T02:20:06.022Z,15.57
2023-02-28T02:23:32.196Z,17.38
2023-02-28T02:26:46.301Z,15.55
2023-02-28T02:30:04.992Z,17.33
2023-02-28T02:33:25.507Z,13.55
2023-02-28T02:36:10.287Z,13.07
2023-02-28T02:39:09.269Z,15.50
2023-02-28T02:41:47.692Z,16.50
2023-02-28T02:44:34.559Z,16.00
2023-02-28T02:47:14.329Z,16.55
2023-02-28T02:49:47.484Z,15.65
2023-02-28T02:52:18.707Z,18.25
2023-02-28T02:54:48.940Z,15.40
2023-02-28T02:57:32.496Z,13.48
2023-02-28T03:00:00.885Z,13.80
2023-02-28T03:02:34.527Z,13.48
2023-02-28T03:05:08.752Z,13.57
2023-02-28T03:07:36.032Z,12.95
2023-02-28T03:10:04.021Z,12.38
2023-02-28T03:12:49.832Z,13.13
2023-02-28T03:15:32.036Z,12.27
2023-02-28T03:18:23.482Z,13.82
2023-02-28T03:21:34.351Z,10.85
2023-02-28T03:24:25.756Z,12.30
2023-02-28T03:27:04.281Z,12.52
2023-02-28T03:29:51.296Z,15.15
2023-02-28T03:32:22.049Z,13.60
2023-02-28T03:35:15.440Z,16.00
2023-02-28T03:37:44.827Z,14.43
2023-02-28T03:40:17.501Z,12.23
2023-02-28T03:42:50.203Z,13.82
2023-02-28T03:45:23.658Z,12.45
2023-02-28T03:48:21.402Z,13.30
2023-02-28T03:50:52.545Z,11.60
2023-02-28T03:53:38.063Z,12.45
2023-02-28T03:56:11.933Z,14.45
2023-02-28T03:59:13.008Z,13.90
2023-02-28T04:01:46.288Z,13.27
2023-02-28T04:04:14.771Z,14.52
2023-02-28T04:06:43.666Z,12.63
2023-02-28T04:09:14.296Z,13.23
2023-02-28T04:11:51.817Z,12.82
2023-02-28T04:14:19.336Z,13.18
2023-02-28T04:16:46.625Z,14.27
2023-02-28T04:19:15.087Z,12.43
2023-02-28T04:21:46.121Z,10.55
2023-02-28T04:24:20.421Z,10.98
2023-02-28T04:26:51.346Z,9.57
2023-02-28T04:29:25.667Z,9.40
2023-02-28T04:31:54.105Z,10.45
2023-02-28T04:34:22.054Z,12.05
2023-02-28T04:36:59.649Z,9.85
2023-02-28T04:39:37.167Z,10.32
2023-02-28T04:42:04.922Z,10.18
2023-02-28T04:44:32.337Z,11.43
2023-02-28T04:46:59.566Z,9.88
2023-02-28T04:49:26.964Z,10.63
2023-02-28T04:51:54.175Z,10.55
2023-02-28T04:54:21.484Z,9.60
2023-02-28T04:56:50.179Z,8.18
2023-02-28T04:59:17.832Z,10.93
2023-02-28T05:01:49.889Z,10.45
2023-02-28T05:04:17.554Z,9.45
2023-02-28T05:06:44.887Z,9.48
2023-02-28T05:09:12.007Z,9.82
2023-02-28T05:11:39.940Z,10.90
2023-02-28T05:14:14.541Z,9.70
2023-02-28T05:16:42.062Z,10.27
2023-02-28T05:19:09.230Z,9.43
2023-02-28T05:21:37.413Z,9.52
2023-02-28T05:24:09.425Z,8.15
2023-02-28T05:26:43.412Z,7.80
2023-02-28T05:29:11.291Z,9.93
2023-02-28T05:31:38.636Z,9.00
2023-02-28T05:34:06.721Z,10.20
2023-02-28T05:36:34.169Z,9.63
2023-02-28T05:39:01.338Z,9.75
2023-02-28T05:41:29.147Z,8.27
2023-02-28T05:43:57.976Z,8.77
2023-02-28T05:46:25.120Z,9.37
2023-02-28T05:48:52.330Z,8.18
2023-02-28T05:51:19.556Z,7.22
2023-02-28T05:53:48.623Z,7.88
2023-02-28T05:56:16.023Z,9.13
2023-02-28T05:58:43.133Z,9.05
2023-02-28T06:01:40.001Z,10.32
2023-02-28T06:04:19.313Z,8.93
2023-02-28T06:06:52.983Z,9.02
2023-02-28T06:09:20.832Z,8.65
2023-02-28T06:11:47.992Z,9.98
2023-02-28T06:14:19.651Z,10.93
2023-02-28T06:16:47.663Z,10.15
2023-02-28T06:19:15.665Z,9.52
2023-02-28T06:21:43.604Z,8.20
2023-02-28T06:24:11.140Z,10.88
2023-02-28T06:26:38.357Z,9.77
2023-02-28T06:29:05.653Z,10.52
2023-02-28T06:31:33.255Z,9.85
2023-02-28T06:34:00.749Z,8.98
2023-02-28T06:36:28.134Z,9.07
2023-02-28T06:38:56.488Z,9.50
2023-02-28T06:41:26.636Z,9.48
2023-02-28T06:43:54.326Z,10.45
2023-02-28T06:46:21.986Z,9.40
2023-02-28T06:48:49.271Z,8.48
2023-02-28T06:51:22.578Z,9.00
2023-02-28T06:53:49.901Z,9.52
2023-02-28T06:56:18.337Z,10.02
2023-02-28T06:58:53.262Z,9.68
2023-02-28T07:01:24.014Z,8.23
2023-02-28T07:03:52.669Z,9.45
2023-02-28T07:06:23.066Z,8.30
2023-02-28T07:08:53.383Z,8.52
2023-02-28T07:11:25.761Z,7.97
2023-02-28T07:13:54.723Z,7.82
2023-02-28T07:16:23.191Z,7.82
2023-02-28T07:18:52.426Z,6.65
2023-02-28T07:21:19.706Z,7.47
2023-02-28T07:23:46.842Z,6.93
2023-02-28T07:26:17.444Z,6.78
2023-02-28T07:28:47.807Z,7.15
2023-02-28T07:31:17.490Z,7.25
2023-02-28T07:33:44.926Z,6.50
2023-02-28T07:36:15.718Z,7.05
2023-02-28T07:38:46.319Z,5.82
2023-02-28T07:41:23.586Z,7.18
2023-02-28T07:43:53.457Z,7.60
2023-02-28T07:46:21.636Z,7.60
2023-02-28T07:48:49.089Z,8.13
2023-02-28T07:51:16.551Z,8.60
2023-02-28T07:53:43.651Z,7.75
2023-02-28T07:56:11.171Z,7.97
2023-02-28T07:58:38.492Z,6.75
2023-02-28T08:01:09.037Z,7.03
2023-02-28T08:03:38.236Z,7.15
2023-02-28T08:06:08.710Z,6.97
2023-02-28T08:08:35.898Z,7.70
2023-02-28T08:11:04.420Z,7.05
2023-02-28T08:13:32.254Z,7.40
2023-02-28T08:16:02.204Z,7.95
2023-02-28T08:18:29.466Z,6.75
2023-02-28T08:20:57.888Z,8.55
2023-02-28T08:23:25.226Z,10.25
2023-02-28T08:25:56.713Z,10.65
2023-02-28T08:28:26.090Z,10.93
2023-02-28T08:30:55.298Z,10.48
2023-02-28T08:33:23.968Z,11.75
2023-02-28T08:36:00.133Z,12.67
2023-02-28T08:38:27.319Z,13.45
2023-02-28T08:41:06.248Z,14.68
2023-02-28T08:43:35.004Z,14.48
2023-02-28T08:46:02.669Z,15.13
2023-02-28T08:48:32.811Z,13.30
2023-02-28T08:51:14.507Z,13.73
2023-02-28T08:53:41.842Z,12.10
2023-02-28T08:56:18.155Z,12.60
2023-02-28T08:58:47.385Z,11.70
2023-02-28T09:01:20.680Z,12.18
2023-02-28T09:03:50.121Z,12.73
2023-02-28T09:06:19.640Z,11.32
2023-02-28T09:08:47.074Z,10.82
2023-02-28T09:11:14.688Z,9.95
2023-02-28T09:13:42.015Z,11.48
2023-02-28T09:16:13.207Z,11.10
2023-02-28T09:18:41.094Z,9.93
2023-02-28T09:21:18.852Z,13.73
2023-02-28T09:23:49.005Z,9.65
2023-02-28T09:26:19.752Z,9.90
2023-02-28T09:28:46.929Z,10.00
2023-02-28T09:31:28.395Z,11.10
2023-02-28T09:33:57.677Z,11.52
2023-02-28T09:36:38.025Z,11.02
2023-02-28T09:39:10.755Z,10.50
2023-02-28T09:41:47.748Z,9.23
2023-02-28T09:44:37.744Z,10.35
2023-02-28T09:47:40.051Z,10.57
2023-02-28T09:50:45.113Z,8.77
2023-02-28T09:53:23.243Z,9.60
2023-02-28T09:55:55.642Z,7.80
2023-02-28T09:58:56.736Z,8.30
2023-02-28T10:01:44.506Z,8.95
2023-02-28T10:04:44.189Z,8.77
2023-02-28T10:07:59.346Z,8.50
2023-02-28T10:10:41.511Z,8.63
2023-02-28T10:13:41.674Z,9.05
2023-02-28T10:16:15.266Z,10.52
2023-02-28T10:19:03.931Z,9.50
2023-02-28T10:21:42.853Z,8.87
2023-02-28T10:24:31.227Z,8.40
2023-02-28T10:27:23.781Z,9.35
2023-02-28T10:29:54.749Z,10.27
2023-02-28T10:32:34.687Z,8.43
2023-02-28T10:35:11.265Z,7.47
2023-02-28T10:37:40.797Z,7.72
2023-02-28T10:43:14.592Z,8.02
2023-02-28T10:46:10.730Z,9.38
2023-02-28T10:48:49.593Z,7.88
2023-02-28T10:51:20.210Z,10.60
2023-02-28T10:54:01.201Z,18.60
2023-02-28T10:56:30.238Z,8.25
2023-02-28T10:59:16.055Z,8.47
2023-02-28T11:01:49.325Z,8.48
2023-02-28T11:04:36.266Z,8.45
2023-02-28T11:07:20.662Z,9.40
2023-02-28T11:09:55.095Z,8.20
2023-02-28T11:12:46.883Z,12.90
2023-02-28T11:15:28.607Z,12.80
2023-02-28T11:18:13.670Z,10.05
2023-02-28T11:20:41.362Z,10.43
2023-02-28T11:23:14.212Z,23.85
2023-02-28T11:25:54.911Z,11.18
2023-02-28T11:28:38.593Z,12.30
2023-02-28T11:31:19.666Z,11.70
2023-02-28T11:33:56.087Z,11.82
2023-02-28T11:36:25.068Z,11.07
2023-02-28T11:38:56.585Z,11.82
2023-02-28T11:41:57.874Z,11.95
2023-02-28T11:44:51.962Z,10.73
2023-02-28T11:47:41.473Z,11.35
2023-02-28T11:50:35.768Z,37.85
2023-02-28T11:53:23.577Z,11.10
2023-02-28T11:56:06.378Z,14.68
2023-02-28T11:59:03.072Z,14.27
2023-02-28T12:01:40.060Z,14.68
2023-02-28T12:04:25.897Z,18.48
2023-02-28T12:07:29.892Z,18.63
2023-02-28T12:10:36.149Z,13.95
2023-02-28T12:13:21.173Z,18.52
2023-02-28T12:16:57.976Z,16.55
2023-02-28T12:19:58.705Z,20.35
2023-02-28T12:22:51.936Z,21.23
2023-02-28T12:25:58.854Z,21.27
2023-02-28T12:28:53.432Z,20.65
2023-02-28T12:31:40.649Z,17.55
2023-02-28T12:34:18.991Z,25.85
2023-02-28T12:36:47.854Z,19.52
2023-02-28T12:39:44.947Z,20.67
2023-02-28T12:42:36.473Z,19.65
2023-02-28T12:45:13.458Z,16.35
2023-02-28T12:47:45.218Z,16.08
2023-02-28T12:50:13.216Z,18.08
2023-02-28T12:52:49.142Z,16.75
2023-02-28T12:55:46.983Z,20.65
2023-02-28T12:58:41.636Z,18.80
2023-02-28T13:01:44.631Z,17.20
2023-02-28T13:05:07.857Z,16.95
2023-02-28T13:08:11.905Z,22.13
2023-02-28T13:10:54.647Z,20.42
2023-02-28T13:13:29.943Z,17.60
2023-02-28T13:16:10.156Z,18.10
2023-02-28T13:18:45.349Z,22.08
2023-02-28T13:21:31.137Z,23.85
2023-02-28T13:24:01.289Z,19.70
2023-02-28T13:26:31.457Z,17.92
2023-02-28T13:29:04.850Z,20.42
2023-02-28T13:31:34.507Z,17.65
2023-02-28T13:34:28.227Z,22.50
2023-02-28T13:37:18.089Z,24.90
2023-02-28T13:39:48.347Z,31.17
2023-02-28T13:42:22.335Z,23.45
2023-02-28T13:46:01.719Z,23.60
2023-02-28T13:50:57.692Z,26.95
2023-02-28T13:53:56.109Z,27.52
2023-02-28T13:56:42.764Z,28.45
2023-02-28T13:59:35.956Z,22.88
2023-02-28T14:02:30.044Z,25.00
2023-02-28T14:05:25.751Z,27.42
2023-02-28T14:08:00.011Z,26.98
2023-02-28T14:10:46.769Z,33.90
2023-02-28T14:13:47.995Z,25.80
2023-02-28T14:16:21.534Z,21.95
2023-02-28T14:19:12.098Z,23.35
2023-02-28T14:21:53.716Z,22.10
2023-02-28T14:24:41.972Z,24.90
2023-02-28T14:27:43.286Z,21.05
2023-02-28T14:30:36.561Z,29.98
2023-02-28T14:33:32.493Z,20.90
2023-02-28T14:36:14.753Z,21.48
2023-02-28T14:39:13.989Z,23.15
2023-02-28T14:41:45.128Z,20.10
2023-02-28T14:44:23.920Z,19.50
2023-02-28T14:46:56.573Z,17.83
2023-02-28T14:49:52.130Z,18.70
2023-02-28T14:52:30.036Z,18.52
2023-02-28T14:55:14.506Z,25.33
2023-02-28T14:57:55.808Z,21.55
2023-02-28T15:00:32.458Z,20.30
2023-02-28T15:03:02.219Z,28.15
2023-02-28T15:05:31.859Z,19.05
2023-02-28T15:11:13.939Z,18.30
2023-02-28T15:13:55.771Z,19.42
2023-02-28T15:16:51.723Z,21.85
2023-02-28T15:19:41.967Z,19.10
2023-02-28T15:22:17.328Z,18.77
2023-02-28T15:24:52.240Z,17.52
2023-02-28T15:27:31.445Z,19.83
2023-02-28T15:30:05.412Z,19.20
2023-02-28T15:32:39.999Z,15.80
2023-02-28T15:35:29.670Z,15.10
2023-02-28T15:40:44.666Z,14.15
2023-02-28T15:43:40.432Z,16.27
2023-02-28T15:46:14.024Z,14.88
2023-02-28T15:48:57.160Z,16.27
2023-02-28T15:51:34.772Z,18.23
2023-02-28T15:54:12.989Z,17.20
2023-02-28T15:56:51.805Z,15.60
2023-02-28T15:59:31.197Z,15.68
2023-02-28T16:02:22.547Z,17.50
2023-02-28T16:05:33.082Z,17.38
2023-02-28T16:08:14.002Z,16.10
2023-02-28T16:10:41.217Z,16.25
2023-02-28T16:13:12.855Z,18.52
2023-02-28T16:15:44.300Z,15.98
2023-02-28T16:18:12.882Z,18.83
2023-02-28T16:20:40.961Z,17.67
2023-02-28T16:23:08.532Z,23.48
2023-02-28T16:25:44.075Z,16.35
2023-02-28T16:28:31.552Z,21.48
2023-02-28T16:31:03.210Z,17.70
2023-02-28T16:33:31.723Z,14.32
2023-02-28T16:35:59.935Z,11.98
2023-02-28T16:38:27.664Z,13.05
2023-02-28T16:40:59.205Z,10.65
2023-02-28T16:43:27.707Z,11.13
2023-02-28T16:46:00.195Z,9.77
2023-02-28T16:48:28.522Z,10.18
2023-02-28T16:50:55.769Z,10.52
2023-02-28T16:53:22.867Z,10.75
2023-02-28T16:55:51.297Z,10.95
2023-02-28T16:58:19.657Z,12.68
2023-02-28T17:00:46.776Z,11.68
2023-02-28T17:03:32.735Z,19.25
2023-02-28T17:06:01.494Z,12.73
2023-02-28T17:08:30.256Z,10.35
2023-02-28T17:10:57.518Z,11.48
2023-02-28T17:13:25.274Z,10.30
2023-02-28T17:15:52.785Z,10.77
2023-02-28T17:18:21.585Z,11.80
2023-02-28T17:20:49.498Z,9.77
2023-02-28T17:23:17.061Z,9.30
2023-02-28T17:25:55.200Z,11.90
2023-02-28T17:28:24.946Z,14.25
2023-02-28T17:30:52.284Z,14.57
2023-02-28T17:33:19.945Z,14.23
2023-02-28T17:35:47.242Z,12.55
2023-02-28T17:38:19.336Z,9.15
2023-02-28T17:40:46.662Z,10.95
2023-02-28T17:43:15.137Z,6.85
2023-02-28T17:45:42.639Z,9.18
2023-02-28T17:48:13.349Z,12.15
2023-02-28T17:50:41.177Z,10.88
2023-02-28T17:53:08.651Z,14.02
2023-02-28T17:55:36.540Z,9.27
2023-02-28T17:58:04.273Z,16.10
2023-02-28T18:00:33.844Z,9.85
2023-02-28T18:05:28.306Z,9.55
2023-02-28T18:07:55.626Z,11.38
2023-02-28T18:10:22.982Z,12.45
2023-02-28T18:12:53.126Z,14.70
2023-02-28T18:15:22.150Z,11.90
2023-02-28T18:17:50.131Z,8.07
2023-02-28T18:20:17.824Z,10.90
2023-02-28T18:22:45.117Z,13.25
2023-02-28T18:25:16.362Z,9.32
2023-02-28T18:27:57.420Z,7.22
2023-02-28T18:30:29.726Z,12.93
2023-02-28T18:33:01.679Z,8.93
2023-02-28T18:35:36.602Z,8.80
2023-02-28T18:38:14.535Z,9.65
2023-02-28T18:40:43.058Z,9.02
2023-02-28T18:43:10.336Z,9.40
2023-02-28T18:45:38.906Z,10.52
2023-02-28T18:48:06.339Z,8.73
2023-02-28T18:50:33.540Z,8.35
2023-02-28T18:53:02.683Z,8.43
2023-02-28T18:55:32.042Z,8.38
2023-02-28T18:57:59.613Z,10.77
2023-02-28T19:00:27.129Z,9.90
2023-02-28T19:02:54.430Z,6.90
2023-02-28T19:05:21.713Z,7.75
2023-02-28T19:07:49.157Z,7.88
2023-02-28T19:10:16.994Z,6.88
2023-02-28T19:12:44.939Z,5.93
2023-02-28T19:15:12.538Z,10.68
2023-02-28T19:17:40.157Z,6.28
2023-02-28T19:20:09.206Z,6.15
2023-02-28T19:22:36.712Z,6.70
2023-02-28T19:25:06.126Z,14.32
2023-02-28T19:27:33.612Z,13.18
2023-02-28T19:30:00.717Z,11.70
2023-02-28T19:32:28.139Z,4.65
2023-02-28T19:34:55.338Z,6.07
2023-02-28T19:37:22.667Z,4.68
2023-02-28T19:39:49.914Z,6.38
2023-02-28T19:42:18.164Z,4.30
2023-02-28T19:44:45.568Z,5.15
2023-02-28T19:47:13.278Z,6.03
2023-02-28T19:49:41.031Z,4.68
2023-02-28T19:52:11.764Z,9.40
2023-02-28T19:54:42.331Z,6.15
2023-02-28T19:57:09.567Z,7.38
2023-02-28T19:59:39.821Z,10.23
2023-02-28T20:02:15.833Z,7.00
2023-02-28T20:04:46.959Z,10.05
2023-02-28T20:07:15.831Z,12.93
2023-02-28T20:09:44.367Z,8.85
2023-02-28T20:12:23.513Z,7.38
2023-02-28T20:14:55.419Z,10.15
2023-02-28T20:17:23.873Z,5.88
2023-02-28T20:19:51.111Z,10.52
2023-02-28T20:22:18.426Z,6.30
2023-02-28T20:24:47.683Z,6.25
2023-02-28T20:27:15.131Z,7.95
2023-02-28T20:29:42.381Z,8.05
2023-02-28T20:32:09.981Z,6.10
2023-02-28T20:34:37.193Z,6.53
2023-02-28T20:37:04.504Z,8.00
2023-02-28T20:39:31.877Z,5.82
2023-02-28T20:41:59.212Z,5.57
2023-02-28T20:44:26.467Z,7.53
2023-02-28T20:46:54.208Z,5.75
2023-02-28T20:49:22.568Z,7.35
2023-02-28T20:51:49.805Z,8.88
2023-02-28T20:54:17.149Z,6.88
2023-02-28T20:56:44.300Z,9.82
2023-02-28T20:59:12.505Z,6.93
2023-02-28T21:01:42.182Z,6.88
2023-02-28T21:04:09.610Z,6.22
2023-02-28T21:06:42.356Z,8.40
2023-02-28T21:09:11.679Z,8.43
2023-02-28T21:11:39.929Z,8.35
2023-02-28T21:14:14.462Z,9.80
2023-02-28T21:16:43.835Z,8.43
2023-02-28T21:19:11.844Z,8.82
2023-02-28T21:21:47.346Z,7.50
2023-02-28T21:24:18.757Z,6.55
2023-02-28T21:26:47.569Z,7.22
2023-02-28T21:29:15.368Z,6.93
2023-02-28T21:31:42.680Z,6.75
2023-02-28T21:34:11.829Z,8.63
2023-02-28T21:36:44.802Z,10.32
2023-02-28T21:39:16.718Z,6.78
2023-02-28T21:41:45.480Z,6.18
2023-02-28T21:44:19.253Z,12.25
2023-02-28T21:46:49.990Z,8.40
2023-02-28T21:49:17.489Z,8.98
2023-02-28T21:51:44.840Z,7.78
2023-02-28T21:54:12.535Z,5.72
2023-02-28T21:56:40.256Z,8.73
2023-02-28T21:59:09.358Z,8.13
2023-02-28T22:01:45.742Z,8.98
2023-02-28T22:04:22.044Z,7.22
2023-02-28T22:06:58.380Z,6.45
2023-02-28T22:09:26.774Z,9.75
2023-02-28T22:11:54.881Z,7.70
2023-02-28T22:14:22.747Z,6.15
2023-02-28T22:16:52.855Z,7.00
2023-02-28T22:19:22.664Z,8.55
2023-02-28T22:21:51.054Z,6.45
2023-02-28T22:24:20.440Z,6.20
2023-02-28T22:26:50.003Z,4.55
2023-02-28T22:31:44.480Z,6.43
2023-02-28T22:34:12.596Z,6.68
2023-02-28T22:36:43.494Z,6.53
2023-02-28T22:39:10.971Z,5.90
2023-02-28T22:41:38.652Z,4.90
2023-02-28T22:44:06.653Z,5.68
2023-02-28T22:46:35.120Z,6.25
2023-02-28T22:49:05.261Z,5.30
2023-02-28T22:51:33.541Z,5.00
2023-02-28T22:54:01.450Z,5.00
2023-02-28T22:56:30.324Z,6.15
2023-02-28T22:59:00.313Z,4.85
2023-02-28T23:01:31.524Z,4.35
2023-02-28T23:04:00.545Z,6.72
2023-02-28T23:06:34.673Z,4.10
2023-02-28T23:09:06.826Z,3.88
2023-02-28T23:11:39.042Z,7.57
2023-02-28T23:14:07.448Z,7.13
2023-02-28T23:16:36.333Z,6.07
2023-02-28T23:19:10.493Z,4.88
2023-02-28T23:21:39.233Z,6.25
2023-02-28T23:24:11.590Z,5.65
2023-02-28T23:26:44.905Z,5.60
2023-02-28T23:29:14.018Z,6.30
2023-02-28T23:31:41.387Z,6.40
2023-02-28T23:34:09.346Z,7.35
2023-02-28T23:36:38.875Z,5.00
2023-02-28T23:39:06.080Z,4.68
2023-02-28T23:41:33.381Z,4.45
2023-02-28T23:44:00.598Z,4.80
2023-02-28T23:46:27.851Z,5.43
2023-02-28T23:48:55.079Z,5.00
2023-02-28T23:51:22.634Z,6.38
2023-02-28T23:53:51.986Z,5.60
2023-02-28T23:56:23.086Z,4.63
2023-02-28T23:58:51.318Z,6.88
